Latest Weather Observations for Cape Wessel

IDD60801

Issued at 4:01 am CST Tuesday 21 January 2020 (issued every 10 minutes, with the page automatically refreshed every 10 minutes)

About weather observations | Map of weather stations | Latest weather observations for NT | Other Formats
Station Details ID: 200786 Name: CAPE WESSEL Lat: -11.00 Lon: 136.76 Height: 18.0 m
Data from the previous 72 hours. | See also: Recent months at Cape Wessel
Date/Time
CST
Temp
°C
App
Temp
°C
Dew
Point
°C
Rel
Hum
%
Delta-T
°C
Wind Press
QNH
hPa
Press
MSL
hPa
Rain since
9am
mm
Dir  Spd
km/h
Gust
km/h
Spd
kts
Gust
kts
21/04:00am 29.0 30.5 25.0 79 2.8 W 26 32 14 17 1009.2 1009.1 0.8
21/03:30am 28.9 29.6 24.9 79 2.8 W 30 35 16 19 1009.4 1009.3 0.8
21/03:00am 28.8 29.0 25.0 80 2.7 W 33 43 18 23 1009.4 1009.3 0.8
21/02:30am 28.7 29.0 24.9 80 2.7 W 32 37 17 20 1009.3 1009.2 0.8
21/02:00am 28.7 29.1 25.1 81 2.5 W 32 39 17 21 1009.7 1009.6 0.8
21/01:30am 28.7 29.1 25.1 81 2.5 WNW 32 37 17 20 1009.9 1009.8 0.8
21/01:00am 28.8 28.5 24.8 79 2.8 W 35 41 19 22 1010.0 1009.9 0.8
21/12:30am 29.0 28.8 25.0 79 2.8 W 35 43 19 23 1010.3 1010.2 0.8
21/12:00am 28.9 28.5 24.7 78 2.9 WNW 35 41 19 22 1010.7 1010.6 0.8
 
Date/Time
CST
Temp
°C
App
Temp
°C
Dew
Point
°C
Rel
Hum
%
Delta-T
°C
Wind Press
QNH
hPa
Press
MSL
hPa
Rain since
9am
mm
Dir  Spd
km/h
Gust
km/h
Spd
kts
Gust
kts
20/11:30pm 29.0 28.0 25.0 79 2.8 W 39 46 21 25 1010.9 1010.8 0.8
20/11:00pm 29.0 29.2 25.6 82 2.4 W 35 43 19 23 1011.1 1011.0 0.8
20/10:30pm 29.3 29.7 25.3 79 2.8 WNW 33 43 18 23 1010.8 1010.7 0.8
20/10:00pm 29.3 30.0 25.5 80 2.7 WNW 32 39 17 21 1010.8 1010.7 0.8
20/09:30pm 29.3 30.0 25.5 80 2.7 WNW 32 39 17 21 1010.7 1010.6 0.8
20/09:00pm 29.3 29.4 24.8 77 3.2 WNW 33 41 18 22 1010.3 1010.2 0.8
20/08:30pm 29.5 29.5 25.3 78 3.0 WNW 35 46 19 25 1009.9 1009.8 0.8
20/08:00pm 29.3 28.5 25.3 79 2.8 W 39 44 21 24 1009.2 1009.1 0.8
20/07:30pm 29.5 29.9 25.3 78 3.0 WNW 33 46 18 25 1008.7 1008.6 0.8
20/07:00pm 29.6 31.0 25.4 78 3.0 WNW 28 37 15 20 1008.2 1008.1 0.8
20/06:30pm 29.9 30.5 25.4 77 3.2 WNW 32 37 17 20 1008.0 1007.9 0.8
20/06:00pm 30.8 31.4 25.4 73 3.8 WNW 32 39 17 21 1007.8 1007.7 0.8
20/05:30pm 31.6 31.9 25.2 69 4.5 WNW 33 41 18 22 1007.4 1007.3 0.8
20/05:00pm 32.2 33.5 25.3 67 4.9 WNW 28 35 15 19 1007.1 1007.0 0.8
20/04:30pm 31.7 32.6 24.6 66 5.0 WNW 28 37 15 20 1007.3 1007.2 0.8
20/04:00pm 32.9 34.7 25.4 64 5.3 WNW 26 33 14 18 1007.4 1007.3 0.8
20/03:30pm 32.8 34.1 25.3 64 5.3 WNW 28 35 15 19 1007.3 1007.2 0.8
20/03:00pm 31.5 33.2 26.5 75 3.6 WNW 30 35 16 19 1007.5 1007.4 0.8
20/02:30pm 29.2 30.1 25.8 82 2.4 W 32 39 17 21 1007.8 1007.7 0.8
20/02:00pm 28.6 29.6 25.4 83 2.3 W 30 37 16 20 1008.2 1008.1 0.8
20/01:30pm 27.3 29.4 25.3 89 1.4 W 24 30 13 16 1008.8 1008.7 0.8
20/01:00pm 26.6 25.8 25.2 92 1.0 WSW 39 57 21 31 1009.4 1009.3 0.6
20/12:42pm 28.4 26.2 24.2 78 2.9 WSW 43 61 23 33 1009.5 1009.4 0.0
20/12:36pm 30.5 29.4 23.4 66 4.9 W 35 44 19 24 1009.5 1009.4 0.0
20/12:30pm 34.3 35.4 26.2 62 5.8 WNW 32 41 17 22 1009.3 1009.2 0.0
20/12:00pm 33.5 34.2 24.9 60 6.1 WNW 30 43 16 23 1009.4 1009.3 0.0
20/11:30am 34.3 36.4 27.0 65 5.3 WNW 30 37 16 20 1009.5 1009.4 0.0
20/11:00am 34.3 36.4 26.5 64 5.6 WNW 28 35 15 19 1009.7 1009.6 0.0
20/10:30am 32.0 32.6 25.3 67 4.7 WNW 32 41 17 22 1010.1 1010.0 0.0
20/10:00am 33.4 34.9 25.6 63 5.6 WNW 28 37 15 20 1010.0 1009.9 0.0
20/09:30am 32.8 34.3 25.6 66 5.1 WNW 28 37 15 20 1009.8 1009.7 0.0
20/09:00am 31.5 32.1 25.4 70 4.3 WNW 32 41 17 22 1010.0 1009.9 0.0
20/08:30am 31.9 33.0 25.5 69 4.5 WNW 30 37 16 20 1009.6 1009.5 0.0
20/08:00am 31.4 32.4 26.0 73 3.9 WNW 32 39 17 21 1009.5 1009.4 0.0
20/07:30am 30.5 31.8 25.8 76 3.3 WNW 30 37 16 20 1009.1 1009.0 0.0
20/07:00am 29.9 30.0 24.5 73 3.8 WNW 32 39 17 21 1008.7 1008.6 0.0
20/06:30am 29.0 30.8 26.0 84 2.1 WNW 28 35 15 19 1008.4 1008.3 0.0
20/06:00am 29.5 30.3 25.7 80 2.7 WNW 32 37 17 20 1007.7 1007.6 0.0
20/05:30am 29.5 30.3 25.7 80 2.7 WNW 32 39 17 21 1007.5 1007.4 0.0
20/05:00am 29.7 29.8 25.4 78 3.0 WNW 35 43 19 23 1007.4 1007.3 0.0
20/04:30am 29.7 30.3 26.3 82 2.4 WNW 35 46 19 25 1007.3 1007.2 0.0
20/04:00am 29.7 30.3 25.7 79 2.8 WNW 33 41 18 22 1007.2 1007.1 0.0
20/03:30am 29.7 30.1 25.9 80 2.7 W 35 43 19 23 1007.2 1007.1 0.0
20/03:00am 29.6 29.7 25.4 78 3.0 WNW 35 44 19 24 1007.1 1007.0 0.0
20/02:30am 29.6 29.5 25.8 80 2.7 WNW 37 46 20 25 1007.3 1007.2 0.0
20/02:00am 29.8 30.0 26.2 81 2.6 WNW 37 48 20 26 1007.7 1007.6 0.0
20/01:30am 29.8 30.4 26.2 81 2.6 WNW 35 44 19 24 1007.9 1007.8 0.0
20/01:00am 29.9 29.5 25.9 79 2.8 WNW 39 46 21 25 1008.2 1008.1 0.0
20/12:30am 29.8 30.4 26.2 81 2.6 WNW 35 44 19 24 1008.2 1008.1 0.0
20/12:00am 29.8 30.4 26.2 81 2.6 WNW 35 44 19 24 1008.6 1008.5 0.0
 
Date/Time
CST
Temp
°C
App
Temp
°C
Dew
Point
°C
Rel
Hum
%
Delta-T
°C
Wind Press
QNH
hPa
Press
MSL
hPa
Rain since
9am
mm
Dir  Spd
km/h
Gust
km/h
Spd
kts
Gust
kts
19/11:30pm 29.8 29.5 25.5 78 3.0 WNW 37 46 20 25 1008.9 1008.8 0.0
19/11:00pm 29.7 30.5 26.5 83 2.3 WNW 35 44 19 24 1008.8 1008.7 0.0
19/10:30pm 29.7 30.0 26.3 82 2.4 WNW 37 46 20 25 1008.7 1008.6 0.0
19/10:00pm 29.8 30.1 26.4 82 2.4 WNW 37 46 20 25 1008.5 1008.4 0.0
19/09:30pm 29.6 30.2 26.2 82 2.4 WNW 35 43 19 23 1008.4 1008.3 0.0
19/09:00pm 29.6 30.7 26.2 82 2.4 WNW 32 41 17 22 1008.2 1008.1 0.0
19/08:30pm 29.7 30.7 26.3 82 2.4 WNW 33 43 18 23 1007.9 1007.8 0.0
19/08:00pm 29.6 30.9 26.4 83 2.3 WNW 32 41 17 22 1007.6 1007.5 0.0
19/07:30pm 29.8 30.2 26.0 80 2.7 WNW 35 46 19 25 1007.3 1007.2 0.0
19/07:00pm 29.8 29.7 25.8 79 2.8 WNW 37 46 20 25 1006.7 1006.6 0.0
19/06:30pm 30.3 29.9 25.8 77 3.2 WNW 39 50 21 27 1006.3 1006.2 0.0
19/06:00pm 30.8 31.3 26.1 76 3.4 NW 35 46 19 25 1006.0 1005.9 0.0
19/05:30pm 31.8 32.6 25.9 71 4.2 WNW 33 43 18 23 1005.8 1005.7 0.0
19/05:00pm 32.8 33.5 26.4 69 4.6 WNW 35 44 19 24 1005.8 1005.7 0.0
19/04:30pm 32.8 33.6 25.9 67 4.9 WNW 33 43 18 23 1006.0 1005.9 0.0
19/04:00pm 33.5 33.9 26.0 65 5.4 WNW 35 44 19 24 1006.0 1005.9 0.0
19/03:30pm 34.2 35.3 26.4 64 5.6 WNW 33 41 18 22 1006.1 1006.0 0.0
19/03:00pm 34.3 35.4 26.2 62 5.8 WNW 32 39 17 21 1006.3 1006.2 0.0
19/02:30pm 34.6 36.5 26.8 64 5.7 WNW 30 39 16 21 1006.5 1006.4 0.0
19/02:00pm 34.3 35.4 26.2 62 5.8 WNW 32 41 17 22 1006.9 1006.8 0.0
19/01:30pm 34.4 35.5 26.9 65 5.4 W 35 43 19 23 1007.5 1007.4 0.0
19/01:00pm 34.1 36.2 27.1 67 5.1 WNW 30 39 16 21 1007.9 1007.8 0.0
19/12:30pm 34.7 36.3 27.1 64 5.5 WNW 33 41 18 22 1008.3 1008.2 0.0
19/12:00pm 34.4 35.5 26.9 65 5.4 WNW 35 43 19 23 1008.6 1008.5 0.0
19/11:30am 34.3 35.9 26.8 65 5.4 W 32 37 17 20 1008.9 1008.8 0.0
19/11:00am 34.0 35.3 26.5 65 5.4 WNW 32 39 17 21 1009.2 1009.1 0.0
19/10:30am 33.8 35.1 26.5 65 5.3 WNW 32 41 17 22 1009.2 1009.1 0.0
19/10:00am 33.7 35.4 27.0 68 4.9 WNW 32 39 17 21 1009.4 1009.3 0.0
19/09:30am 32.8 33.6 26.6 70 4.5 WNW 35 43 19 23 1009.7 1009.6 0.0
19/09:00am 32.1 32.7 26.2 71 4.2 WNW 35 43 19 23 1009.8 1009.7 0.0
19/08:30am 31.7 33.0 26.5 74 3.7 WNW 32 39 17 21 1009.5 1009.4 0.0
19/08:00am 30.5 30.3 26.2 78 3.1 WNW 39 46 21 25 1009.3 1009.2 0.0
19/07:30am 30.5 31.3 26.0 77 3.2 WNW 33 43 18 23 1008.8 1008.7 0.0
19/07:00am 30.0 31.1 26.2 80 2.7 WNW 32 39 17 21 1008.4 1008.3 0.0
19/06:30am 29.7 29.3 25.9 80 2.7 WNW 39 46 21 25 1008.0 1007.9 0.0
19/06:00am 29.5 29.9 25.9 81 2.6 WNW 35 43 19 23 1007.8 1007.7 0.0
19/05:30am 29.6 29.9 25.8 80 2.7 WNW 35 43 19 23 1007.7 1007.6 0.0
19/05:00am 29.6 30.0 26.0 81 2.6 WNW 35 44 19 24 1007.2 1007.1 0.0
19/04:30am 29.5 29.9 25.9 81 2.6 WNW 35 44 19 24 1007.1 1007.0 0.0
19/04:00am 29.6 30.2 26.2 82 2.4 WNW 35 46 19 25 1007.2 1007.1 0.0
19/03:30am 29.5 30.3 25.9 81 2.6 WNW 33 41 18 22 1007.2 1007.1 0.0
19/03:00am 29.7 30.9 26.5 83 2.3 WNW 33 41 18 22 1007.4 1007.3 0.0
19/02:30am 29.7 30.3 26.3 82 2.4 WNW 35 44 19 24 1007.3 1007.2 0.0
19/02:00am 29.6 29.7 26.0 81 2.6 WNW 37 46 20 25 1007.2 1007.1 0.0
19/01:30am 29.5 29.9 25.9 81 2.6 WNW 35 44 19 24 1007.5 1007.4 0.0
19/01:00am 29.7 30.0 26.3 82 2.4 WNW 37 44 20 24 1007.7 1007.6 0.0
19/12:30am 29.7 29.5 26.1 81 2.6 WNW 39 48 21 26 1008.0 1007.9 0.0
19/12:00am 29.8 29.4 25.8 79 2.8 WNW 39 48 21 26 1008.2 1008.1 0.0
 
Date/Time
CST
Temp
°C
App
Temp
°C
Dew
Point
°C
Rel
Hum
%
Delta-T
°C
Wind Press
QNH
hPa
Press
MSL
hPa
Rain since
9am
mm
Dir  Spd
km/h
Gust
km/h
Spd
kts
Gust
kts
18/11:30pm 29.8 29.8 26.4 82 2.4 WNW 39 50 21 27 1008.3 1008.2 0.0
18/11:00pm 29.7 29.8 26.1 81 2.6 WNW 37 46 20 25 1008.1 1008.0 0.0
18/10:30pm 29.7 30.0 26.3 82 2.4 WNW 37 46 20 25 1008.1 1008.0 0.0
18/10:00pm 29.8 30.3 26.6 83 2.3 WNW 37 46 20 25 1007.8 1007.7 0.0
18/09:30pm 29.8 30.0 26.2 81 2.6 WNW 37 48 20 26 1007.5 1007.4 0.0
18/09:00pm 29.8 30.3 26.6 83 2.3 WNW 37 48 20 26 1007.4 1007.3 0.0
18/08:30pm 30.1 30.7 26.3 80 2.7 WNW 35 46 19 25 1007.0 1006.9 0.0
18/08:00pm 29.9 29.7 25.6 78 3.0 WNW 37 48 20 26 1006.5 1006.4 0.0
18/07:30pm 29.9 30.8 26.7 83 2.3 WNW 35 46 19 25 1006.5 1006.4 0.0
18/07:00pm 30.1 30.9 26.5 81 2.6 WNW 35 43 19 23 1006.4 1006.3 0.0
18/06:30pm 30.4 31.4 26.3 79 2.9 WNW 33 43 18 23 1006.2 1006.1 0.0
18/06:00pm 31.1 31.9 26.6 77 3.2 WNW 35 44 19 24 1005.7 1005.6 0.0
18/05:30pm 31.4 32.5 26.4 75 3.6 WNW 33 43 18 23 1005.3 1005.2 0.0
18/05:00pm 31.8 32.6 26.6 74 3.7 WNW 35 43 19 23 1005.2 1005.1 0.0
18/04:30pm 32.7 33.6 26.7 70 4.3 WNW 35 44 19 24 1005.1 1005.0 0.0
18/04:00pm 33.3 34.3 26.8 68 4.7 WNW 35 44 19 24 1005.3 1005.2 0.0
18/03:30pm 33.6 34.3 25.8 63 5.6 WNW 33 44 18 24 1005.6 1005.5 0.0
18/03:00pm 34.4 36.2 27.1 65 5.3 WNW 32 41 17 22 1006.0 1005.9 0.0
18/02:30pm 33.9 34.7 26.6 65 5.3 WNW 35 43 19 23 1006.4 1006.3 0.0
18/02:00pm 34.0 34.8 26.5 65 5.4 WNW 35 44 19 24 1006.7 1006.6 0.0
18/01:30pm 34.7 36.1 26.9 64 5.7 WNW 33 44 18 24 1007.0 1006.9 0.0
18/01:00pm 34.6 36.3 27.0 64 5.5 WNW 32 43 17 23 1007.4 1007.3 0.0
18/12:30pm 34.2 35.1 26.7 65 5.4 WNW 35 44 19 24 1007.7 1007.6 0.0
18/12:00pm 34.8 36.7 27.5 66 5.3 WNW 33 43 18 23 1008.1 1008.0 0.0
18/11:30am 34.3 35.9 26.8 65 5.4 WNW 32 41 17 22 1008.4 1008.3 0.0
18/11:00am 33.6 35.3 26.4 66 5.2 WNW 30 41 16 22 1008.7 1008.6 0.0
18/10:30am 33.7 35.0 26.5 66 5.2 WNW 32 39 17 21 1008.8 1008.7 0.0
18/10:00am 33.1 34.2 26.4 68 4.8 WNW 33 41 18 22 1009.0 1008.9 0.0
18/09:30am 32.7 34.2 26.7 70 4.3 WNW 32 37 17 20 1008.9 1008.8 0.0
18/09:00am 32.2 33.4 26.3 71 4.2 WNW 32 41 17 22 1008.8 1008.7 0.0
18/08:30am 31.5 33.6 26.5 75 3.6 WNW 28 35 15 19 1008.7 1008.6 0.0
18/08:00am 31.1 32.4 26.4 76 3.4 WNW 32 41 17 22 1008.6 1008.5 0.0
18/07:30am 30.4 31.6 26.3 79 2.9 WNW 32 41 17 22 1008.4 1008.3 0.0
18/07:00am 29.8 30.5 25.8 79 2.8 WNW 33 43 18 23 1007.9 1007.8 0.0
18/06:30am 29.5 29.9 25.9 81 2.6 WNW 35 46 19 25 1007.5 1007.4 0.0
18/06:00am 29.4 30.2 26.0 82 2.4 WNW 33 43 18 23 1007.1 1007.0 0.0
18/05:30am 29.4 29.5 26.0 82 2.4 WNW 37 46 20 25 1006.9 1006.8 0.0
18/05:00am 29.4 30.5 26.2 83 2.3 WNW 32 39 17 21 1006.7 1006.6 0.0
18/04:30am 29.4 29.8 26.0 82 2.4 WNW 35 43 19 23 1006.4 1006.3 0.0

Other formats

Comma delimited format used in spreadsheet applications
http://www.bom.gov.au/fwo/IDD60801/IDD60801.94147.axf

JavaScript Object Notation format (JSON) in row-major order
http://www.bom.gov.au/fwo/IDD60801/IDD60801.94147.json

Data quality

Most of these data are generated automatically and are frequently updated. Quality checks on data are not normally performed. It is possible for incorrect values to appear. Refer to information at About Latest Weather Observations and please check the disclaimer before using these data.